createdAt,value
2018-12-20T00:01:45.778Z,12.2
2018-12-20T00:07:08.548Z,12.7
2018-12-20T00:12:32.226Z,12.2
2018-12-20T00:17:54.988Z,12.3
2018-12-20T00:23:17.914Z,12.4
2018-12-20T00:28:40.563Z,11.9
2018-12-20T00:34:03.431Z,12.1
2018-12-20T00:39:26.016Z,11.5
2018-12-20T00:44:48.706Z,11.6
2018-12-20T00:50:11.477Z,12.2
2018-12-20T00:55:34.335Z,12
2018-12-20T01:00:57.073Z,12
2018-12-20T01:06:19.835Z,11.9
2018-12-20T01:11:42.525Z,12.1
2018-12-20T01:17:05.232Z,12.1
2018-12-20T01:22:28.143Z,11.4
2018-12-20T01:27:50.696Z,12.6
2018-12-20T01:33:13.510Z,13.3
2018-12-20T01:38:35.925Z,13.5
2018-12-20T01:43:58.684Z,13.3
2018-12-20T01:49:22.232Z,13.5
2018-12-20T01:54:45.913Z,13.1
2018-12-20T02:00:09.377Z,13.2
2018-12-20T02:05:32.455Z,13.6
2018-12-20T02:10:55.098Z,13.7
2018-12-20T02:16:18.020Z,13.1
2018-12-20T02:21:40.641Z,13.4
2018-12-20T02:27:03.584Z,13.5
2018-12-20T02:32:26.321Z,13.8
2018-12-20T02:37:50.159Z,14.9
2018-12-20T02:43:13.137Z,14.5
2018-12-20T02:48:36.003Z,13.6
2018-12-20T02:53:58.951Z,15.1
2018-12-20T02:59:21.646Z,14.4
2018-12-20T03:04:44.494Z,15.2
2018-12-20T03:10:07.223Z,14
2018-12-20T03:15:29.916Z,14.1
2018-12-20T03:20:52.499Z,14.1
2018-12-20T03:26:15.259Z,13.4
2018-12-20T03:31:39.065Z,13.6
2018-12-20T03:37:01.704Z,13.6
2018-12-20T03:42:24.620Z,13.5
2018-12-20T03:47:47.164Z,14.1
2018-12-20T03:53:10.011Z,13.5
2018-12-20T03:58:32.683Z,13.8
2018-12-20T04:03:55.364Z,13.6
2018-12-20T04:09:18.349Z,13.5
2018-12-20T04:14:42.584Z,12.1
2018-12-20T04:20:05.270Z,12.5
2018-12-20T04:25:27.864Z,13.8
2018-12-20T04:30:50.728Z,13.3
2018-12-20T04:36:23.753Z,13.7
2018-12-20T04:41:47.077Z,13.6
2018-12-20T04:47:09.893Z,13
2018-12-20T04:52:32.842Z,12.5
2018-12-20T04:57:55.612Z,12.9
2018-12-20T05:03:18.584Z,12.9
2018-12-20T05:08:41.261Z,12.6
2018-12-20T05:14:04.040Z,13
2018-12-20T05:19:26.707Z,13.8
2018-12-20T05:24:49.514Z,13.3
2018-12-20T05:30:12.236Z,13.3
2018-12-20T05:35:35.255Z,13.1
2018-12-20T05:40:58.128Z,13.1
2018-12-20T05:46:21.480Z,13.6
2018-12-20T05:51:44.258Z,13.4
2018-12-20T05:57:06.948Z,13.5
2018-12-20T06:02:29.956Z,13.9
2018-12-20T06:07:52.793Z,13.9
2018-12-20T06:13:15.535Z,14.4
2018-12-20T06:18:40.292Z,14.8
2018-12-20T06:24:02.768Z,14.8
2018-12-20T06:29:25.599Z,15.6
2018-12-20T06:34:48.314Z,15.9
2018-12-20T06:40:12.111Z,20.1
2018-12-20T06:45:35.087Z,20.200001
2018-12-20T06:50:57.922Z,17.4
2018-12-20T06:56:20.878Z,16.5
2018-12-20T07:01:43.665Z,16.200001
2018-12-20T07:07:06.320Z,16.1
2018-12-20T07:12:29.110Z,17.1
2018-12-20T07:17:54.647Z,16.200001
2018-12-20T07:23:17.528Z,17.4
2018-12-20T07:28:40.368Z,17.299999
2018-12-20T07:34:03.121Z,20.6
2018-12-20T07:39:25.876Z,18.200001
2018-12-20T07:44:49.020Z,17.4
2018-12-20T07:50:12.385Z,17.299999
2018-12-20T07:55:34.975Z,17.200001
2018-12-20T08:00:57.685Z,17.700001
2018-12-20T08:06:21.607Z,17.9
2018-12-20T08:11:44.240Z,16.200001
2018-12-20T08:17:06.904Z,17.5
2018-12-20T08:22:29.654Z,17.9
2018-12-20T08:27:52.508Z,17.200001
2018-12-20T08:33:15.602Z,18
2018-12-20T08:38:38.220Z,18.299999
2018-12-20T08:44:11.654Z,17.5
2018-12-20T08:49:34.835Z,17.799999
2018-12-20T08:54:57.720Z,17.299999
2018-12-20T09:00:20.444Z,16.6
2018-12-20T09:05:43.297Z,15.6
2018-12-20T09:11:05.981Z,15.5
2018-12-20T09:16:28.836Z,15.8
2018-12-20T09:21:51.531Z,15.2
2018-12-20T09:27:14.242Z,14.4
2018-12-20T09:32:37.339Z,13.8
2018-12-20T09:38:01.072Z,13.4
2018-12-20T09:43:25.000Z,12.2
2018-12-20T09:48:57.720Z,12.6
2018-12-20T09:54:20.488Z,11.3
2018-12-20T09:59:43.281Z,11.2
2018-12-20T10:05:06.014Z,10.5
2018-12-20T10:10:28.695Z,9.6
2018-12-20T10:15:51.767Z,8.8
2018-12-20T10:21:14.521Z,8.1
2018-12-20T10:26:37.230Z,7.5
2018-12-20T10:31:59.868Z,6.9
2018-12-20T10:46:08.360Z,6.4
2018-12-20T10:52:57.311Z,5.6
2018-12-20T10:59:48.709Z,5.4
2018-12-20T11:06:08.441Z,4.9
2018-12-20T11:12:04.471Z,4.9
2018-12-20T11:17:39.944Z,4.4
2018-12-20T11:23:46.872Z,4.5
2018-12-20T11:29:09.822Z,4.4
2018-12-20T11:34:32.543Z,4
2018-12-20T11:39:59.331Z,4
2018-12-20T11:45:19.170Z,3.2
2018-12-20T11:51:25.061Z,3.4
2018-12-20T11:57:18.524Z,4
2018-12-20T12:11:06.481Z,3.6
2018-12-20T12:16:29.478Z,3.3
2018-12-20T12:21:52.210Z,3.1
2018-12-20T12:27:14.942Z,3
2018-12-20T12:32:37.644Z,3
2018-12-20T12:38:00.927Z,3
2018-12-20T12:43:23.566Z,3.6
2018-12-20T12:48:46.414Z,2.7
2018-12-20T12:54:09.186Z,3.3
2018-12-20T12:59:32.693Z,3.5
2018-12-20T13:04:56.428Z,3.4
2018-12-20T13:10:19.367Z,3.6
2018-12-20T13:15:42.655Z,3.5
2018-12-20T13:21:05.525Z,3.3
2018-12-20T13:26:28.327Z,3.1
2018-12-20T13:31:51.988Z,3.9
2018-12-20T13:37:15.888Z,3.4
2018-12-20T13:42:39.257Z,3.7
2018-12-20T13:48:01.928Z,3.4
2018-12-20T13:53:24.961Z,3.2
2018-12-20T13:58:47.693Z,4.1
2018-12-20T14:04:12.017Z,3.3
2018-12-20T14:09:34.766Z,3.2
2018-12-20T14:14:57.625Z,3.3
2018-12-20T14:20:20.365Z,3.1
2018-12-20T14:25:43.012Z,2.8
2018-12-20T14:31:05.844Z,3
2018-12-20T14:36:28.904Z,2.9
2018-12-20T14:41:51.570Z,3
2018-12-20T14:47:14.603Z,3
2018-12-20T14:52:37.266Z,3
2018-12-20T14:57:59.965Z,3.1
2018-12-20T15:03:22.921Z,3.2
2018-12-20T15:08:45.841Z,3.3
2018-12-20T15:14:08.827Z,3.3
2018-12-20T15:19:32.703Z,3.5
2018-12-20T15:24:55.453Z,3.4
2018-12-20T15:30:18.815Z,4.2
2018-12-20T15:35:41.705Z,3.9
2018-12-20T15:41:04.859Z,3.6
2018-12-20T15:46:27.555Z,3.5
2018-12-20T15:52:01.215Z,3.7
2018-12-20T15:57:23.903Z,3.3
2018-12-20T16:02:46.819Z,4
2018-12-20T16:08:09.713Z,4
2018-12-20T16:13:32.338Z,4.7
2018-12-20T16:18:55.952Z,5.8
2018-12-20T16:24:28.686Z,5.2
2018-12-20T16:30:00.874Z,6.1
2018-12-20T16:35:32.806Z,6.1
2018-12-20T16:41:04.682Z,6.5
2018-12-20T16:46:27.464Z,6.7
2018-12-20T16:51:59.601Z,6.6
2018-12-20T16:57:22.398Z,7.6
2018-12-20T17:02:45.200Z,8.8
2018-12-20T17:08:08.078Z,9.3
2018-12-20T17:13:40.014Z,9.1
2018-12-20T17:19:02.633Z,9.7
2018-12-20T17:24:25.393Z,9.6
2018-12-20T17:29:57.492Z,10.3
2018-12-20T17:35:31.442Z,10.9
2018-12-20T17:41:04.563Z,11.9
2018-12-20T17:46:40.029Z,12.3
2018-12-20T17:52:13.368Z,12.5
2018-12-20T17:57:47.690Z,13.2
2018-12-20T18:03:19.464Z,14.2
2018-12-20T18:08:42.267Z,14.7
2018-12-20T18:14:05.081Z,15.4
2018-12-20T18:19:28.700Z,16.9
2018-12-20T18:24:51.884Z,16.6
2018-12-20T18:30:14.658Z,17.200001
2018-12-20T18:35:41.539Z,16.5
2018-12-20T18:41:04.393Z,17.1
2018-12-20T18:46:29.085Z,17.700001
2018-12-20T18:52:17.999Z,18.6
2018-12-20T18:57:51.211Z,18.5
2018-12-20T19:03:14.108Z,18.5
2018-12-20T19:08:36.917Z,18.6
2018-12-20T19:13:59.669Z,19
2018-12-20T19:19:23.439Z,18.1
2018-12-20T19:24:46.488Z,18.4
2018-12-20T19:30:09.205Z,18.5
2018-12-20T19:35:43.729Z,18.200001
2018-12-20T19:41:16.116Z,17.799999
2018-12-20T19:46:49.253Z,17.700001
2018-12-20T19:52:22.063Z,17.9
2018-12-20T19:57:44.851Z,18.799999
2018-12-20T20:03:07.975Z,17.1
2018-12-20T20:08:30.718Z,15.6
2018-12-20T20:13:53.476Z,15.8
2018-12-20T20:19:16.295Z,16.5
2018-12-20T20:24:39.182Z,15.8
2018-12-20T20:30:02.837Z,16.5
2018-12-20T20:35:26.641Z,16.6
2018-12-20T20:40:49.321Z,16.4
2018-12-20T20:46:12.034Z,16.1
2018-12-20T20:51:36.224Z,16.700001
2018-12-20T20:57:00.192Z,16.4
2018-12-20T21:02:22.998Z,15.7
2018-12-20T21:07:45.669Z,16.5
2018-12-20T21:13:08.484Z,15.7
2018-12-20T21:18:31.143Z,15.8
2018-12-20T21:23:54.066Z,15.9
2018-12-20T21:29:16.898Z,16.6
2018-12-20T21:34:39.584Z,16.200001
2018-12-20T21:40:02.356Z,15.9
2018-12-20T21:45:25.384Z,17.1
2018-12-20T21:50:48.160Z,16.6
2018-12-20T21:56:10.970Z,16.1
2018-12-20T22:01:33.730Z,15.6
2018-12-20T22:06:57.529Z,15.8
2018-12-20T22:12:20.348Z,15
2018-12-20T22:17:43.078Z,15.4
2018-12-20T22:23:05.710Z,14.7
2018-12-20T22:28:28.451Z,14.6
2018-12-20T22:33:51.069Z,14.6
2018-12-20T22:39:13.801Z,15
2018-12-20T22:44:36.441Z,14.3
2018-12-20T22:50:01.061Z,13.9
2018-12-20T22:55:24.184Z,14
2018-12-20T23:00:46.798Z,14.4
2018-12-20T23:06:09.432Z,13.6
2018-12-20T23:11:33.326Z,12.2
2018-12-20T23:16:56.776Z,12.1
2018-12-20T23:22:19.445Z,12.2
2018-12-20T23:27:42.679Z,12.1
2018-12-20T23:33:05.367Z,11.9
2018-12-20T23:38:28.086Z,12.1
2018-12-20T23:43:50.866Z,11.5
2018-12-20T23:49:13.541Z,10.2
2018-12-20T23:54:37.164Z,9.3
2018-12-20T23:59:59.846Z,8.7
